createdAt,value
2022-12-03T00:02:26.991Z,-2.80
2022-12-03T00:04:54.320Z,-2.80
2022-12-03T00:07:21.624Z,-2.80
2022-12-03T00:09:50.496Z,-2.80
2022-12-03T00:12:17.403Z,-2.70
2022-12-03T00:14:45.112Z,-2.80
2022-12-03T00:17:11.938Z,-2.90
2022-12-03T00:19:38.751Z,-2.80
2022-12-03T00:22:05.540Z,-2.80
2022-12-03T00:24:33.078Z,-2.80
2022-12-03T00:27:00.795Z,-2.80
2022-12-03T00:29:27.676Z,-2.80
2022-12-03T00:31:55.200Z,-2.80
2022-12-03T00:34:22.362Z,-2.80
2022-12-03T00:36:49.322Z,-2.80
2022-12-03T00:39:16.003Z,-2.80
2022-12-03T00:41:42.832Z,-2.80
2022-12-03T00:44:10.423Z,-2.80
2022-12-03T00:46:37.330Z,-2.90
2022-12-03T00:49:04.571Z,-2.80
2022-12-03T00:51:32.663Z,-2.80
2022-12-03T00:54:02.897Z,-2.80
2022-12-03T00:56:29.663Z,-2.80
2022-12-03T00:58:56.424Z,-2.80
2022-12-03T01:01:23.378Z,-2.90
2022-12-03T01:03:51.121Z,-2.90
2022-12-03T01:06:17.977Z,-2.90
2022-12-03T01:08:44.737Z,-2.90
2022-12-03T01:11:32.370Z,-2.90
2022-12-03T01:13:59.075Z,-2.90
2022-12-03T01:16:25.895Z,-2.90
2022-12-03T01:18:53.081Z,-2.80
2022-12-03T01:21:22.370Z,-2.80
2022-12-03T01:23:51.663Z,-2.80
2022-12-03T01:26:18.420Z,-2.90
2022-12-03T01:28:45.363Z,-2.90
2022-12-03T01:31:31.479Z,-2.90
2022-12-03T01:34:01.362Z,-2.90
2022-12-03T01:36:29.343Z,-2.80
2022-12-03T01:38:56.121Z,-2.80
2022-12-03T01:41:24.884Z,-2.80
2022-12-03T01:43:53.752Z,-2.90
2022-12-03T01:46:34.840Z,-2.90
2022-12-03T01:49:02.428Z,-2.90
2022-12-03T01:51:31.179Z,-3.00
2022-12-03T01:54:02.547Z,-2.90
2022-12-03T01:56:29.665Z,-2.90
2022-12-03T01:58:56.520Z,-3.00
2022-12-03T02:01:23.797Z,-2.90
2022-12-03T02:03:50.680Z,-2.90
2022-12-03T02:06:20.523Z,-2.90
2022-12-03T02:08:48.384Z,-2.90
2022-12-03T02:11:33.263Z,-2.90
2022-12-03T02:14:07.649Z,-2.90
2022-12-03T02:16:35.200Z,-2.90
2022-12-03T02:19:04.398Z,-2.90
2022-12-03T02:22:09.237Z,-2.90
2022-12-03T02:25:04.090Z,-2.90
2022-12-03T02:27:33.092Z,-2.90
2022-12-03T02:29:59.982Z,-2.90
2022-12-03T02:32:30.020Z,-2.90
2022-12-03T02:34:57.045Z,-2.90
2022-12-03T02:37:35.590Z,-2.90
2022-12-03T02:40:09.151Z,-3.00
2022-12-03T02:42:36.350Z,-2.90
2022-12-03T02:45:23.261Z,-3.00
2022-12-03T02:47:54.119Z,-3.00
2022-12-03T02:50:28.024Z,-3.00
2022-12-03T02:53:00.234Z,-3.00
2022-12-03T02:55:34.931Z,-3.00
2022-12-03T02:58:07.214Z,-3.00
2022-12-03T03:00:35.798Z,-3.00
2022-12-03T03:03:07.742Z,-3.10
2022-12-03T03:05:38.388Z,-3.10
2022-12-03T03:08:07.915Z,-3.00
2022-12-03T03:10:36.947Z,-3.00
2022-12-03T03:13:08.662Z,-3.10
2022-12-03T03:15:37.214Z,-3.10
2022-12-03T03:18:05.600Z,-3.10
2022-12-03T03:20:33.280Z,-3.10
2022-12-03T03:23:17.999Z,-3.10
2022-12-03T03:25:49.433Z,-3.10
2022-12-03T03:28:23.031Z,-3.10
2022-12-03T03:30:51.243Z,-3.20
2022-12-03T03:33:20.384Z,-3.10
2022-12-03T03:35:49.251Z,-3.10
2022-12-03T03:38:21.553Z,-3.10
2022-12-03T03:40:51.059Z,-3.10
2022-12-03T03:43:18.453Z,-3.20
2022-12-03T03:45:45.640Z,-3.10
2022-12-03T03:48:13.833Z,-3.20
2022-12-03T03:50:41.990Z,-3.20
2022-12-03T03:53:11.992Z,-3.20
2022-12-03T03:55:39.818Z,-3.20
2022-12-03T03:58:06.637Z,-3.20
2022-12-03T04:00:34.825Z,-3.20
2022-12-03T04:03:03.209Z,-3.20
2022-12-03T04:05:32.845Z,-3.20
2022-12-03T04:07:59.799Z,-3.20
2022-12-03T04:10:45.160Z,-3.20
2022-12-03T04:13:11.907Z,-3.20
2022-12-03T04:15:38.643Z,-3.20
2022-12-03T04:18:24.244Z,-3.20
2022-12-03T04:20:51.266Z,-3.20
2022-12-03T04:23:17.984Z,-3.20
2022-12-03T04:26:05.935Z,-3.20
2022-12-03T04:28:51.266Z,-3.20
2022-12-03T04:31:36.826Z,-3.20
2022-12-03T04:34:22.674Z,-3.30
2022-12-03T04:36:49.850Z,-3.30
2022-12-03T04:39:16.659Z,-3.20
2022-12-03T04:41:49.506Z,-3.20
2022-12-03T04:44:36.433Z,-3.20
2022-12-03T04:47:06.316Z,-3.20
2022-12-03T04:49:34.127Z,-3.20
2022-12-03T04:52:03.483Z,-3.20
2022-12-03T04:54:31.021Z,-3.20
2022-12-03T04:56:57.870Z,-3.20
2022-12-03T04:59:27.269Z,-3.20
2022-12-03T05:01:57.342Z,-3.10
2022-12-03T05:04:25.322Z,-3.20
2022-12-03T05:06:52.110Z,-3.20
2022-12-03T05:09:21.333Z,-3.20
2022-12-03T05:11:48.128Z,-3.20
2022-12-03T05:14:15.092Z,-3.20
2022-12-03T05:16:41.961Z,-3.10
2022-12-03T05:19:11.354Z,-3.20
2022-12-03T05:21:38.270Z,-3.20
2022-12-03T05:24:05.664Z,-3.10
2022-12-03T05:26:32.912Z,-3.20
2022-12-03T05:29:01.891Z,-3.10
2022-12-03T05:31:28.788Z,-3.20
2022-12-03T05:33:55.834Z,-3.10
2022-12-03T05:36:22.791Z,-3.20
2022-12-03T05:38:51.931Z,-3.20
2022-12-03T05:41:39.782Z,-3.10
2022-12-03T05:44:06.509Z,-3.20
2022-12-03T05:46:33.665Z,-3.10
2022-12-03T05:49:00.722Z,-3.10
2022-12-03T05:51:30.195Z,-3.20
2022-12-03T05:53:57.668Z,-3.10
2022-12-03T05:56:24.435Z,-3.10
2022-12-03T05:58:51.196Z,-3.20
2022-12-03T06:01:20.292Z,-3.20
2022-12-03T06:03:47.283Z,-3.20
2022-12-03T06:06:16.276Z,-3.10
2022-12-03T06:08:42.997Z,-3.20
2022-12-03T06:11:10.476Z,-3.20
2022-12-03T06:13:37.516Z,-3.10
2022-12-03T06:16:04.534Z,-3.10
2022-12-03T06:18:31.967Z,-3.10
2022-12-03T06:21:02.039Z,-3.10
2022-12-03T06:23:28.962Z,-3.10
2022-12-03T06:25:55.698Z,-3.20
2022-12-03T06:28:25.314Z,-3.10
2022-12-03T06:30:54.661Z,-3.00
2022-12-03T06:33:21.528Z,-3.20
2022-12-03T06:35:50.891Z,-3.10
2022-12-03T06:38:17.940Z,-3.10
2022-12-03T06:40:55.349Z,-3.10
2022-12-03T06:43:34.681Z,-3.10
2022-12-03T06:46:02.478Z,-3.10
2022-12-03T06:48:30.498Z,-3.10
2022-12-03T06:50:57.489Z,-3.10
2022-12-03T06:53:25.023Z,-3.10
2022-12-03T06:55:51.833Z,-3.10
2022-12-03T06:58:20.811Z,-3.10
2022-12-03T07:00:48.200Z,-3.10
2022-12-03T07:03:15.846Z,-3.20
2022-12-03T07:05:43.066Z,-3.00
2022-12-03T07:08:10.238Z,-3.00
2022-12-03T07:10:37.002Z,-3.10
2022-12-03T07:13:11.602Z,-3.10
2022-12-03T07:15:40.470Z,-3.10
2022-12-03T07:18:07.372Z,-3.10
2022-12-03T07:20:34.173Z,-3.10
2022-12-03T07:23:02.517Z,-3.10
2022-12-03T07:25:29.438Z,-3.00
2022-12-03T07:27:56.278Z,-3.00
2022-12-03T07:30:24.371Z,-3.00
2022-12-03T07:32:51.459Z,-3.10
2022-12-03T07:35:18.580Z,-3.00
2022-12-03T07:37:45.480Z,-3.00
2022-12-03T07:40:12.691Z,-3.00
2022-12-03T07:42:39.664Z,-2.90
2022-12-03T07:45:07.179Z,-3.00
2022-12-03T07:47:34.013Z,-2.90
2022-12-03T07:50:03.143Z,-3.00
2022-12-03T07:52:30.191Z,-2.90
2022-12-03T07:54:59.977Z,-2.90
2022-12-03T07:57:26.764Z,-3.00
2022-12-03T07:59:53.550Z,-2.90
2022-12-03T08:02:21.874Z,-2.90
2022-12-03T08:04:49.177Z,-2.90
2022-12-03T08:07:18.066Z,-2.90
2022-12-03T08:09:44.893Z,-2.90
2022-12-03T08:12:39.924Z,-2.90
2022-12-03T08:15:26.239Z,-2.90
2022-12-03T08:17:58.794Z,-2.90
2022-12-03T08:20:34.394Z,-2.90
2022-12-03T08:23:07.081Z,-2.90
2022-12-03T08:25:34.119Z,-2.90
2022-12-03T08:28:34.935Z,-2.80
2022-12-03T08:31:12.501Z,-2.80
2022-12-03T08:33:41.807Z,-2.80
2022-12-03T08:36:29.147Z,-2.80
2022-12-03T08:39:02.245Z,-2.80
2022-12-03T08:41:49.848Z,-2.80
2022-12-03T08:44:29.015Z,-2.80
2022-12-03T08:47:12.961Z,-2.80
2022-12-03T08:49:43.274Z,-2.80
2022-12-03T08:52:18.641Z,-2.70
2022-12-03T08:54:56.047Z,-2.80
2022-12-03T08:57:34.799Z,-2.70
2022-12-03T09:00:23.196Z,-2.70
2022-12-03T09:02:52.735Z,-2.70
2022-12-03T09:05:27.264Z,-2.80
2022-12-03T09:07:54.110Z,-2.80
2022-12-03T09:10:23.408Z,-2.70
2022-12-03T09:12:50.304Z,-2.70
2022-12-03T09:15:17.165Z,-2.70
2022-12-03T09:17:44.176Z,-2.70
2022-12-03T09:20:11.300Z,-2.60
2022-12-03T09:22:38.116Z,-2.70
2022-12-03T09:25:07.735Z,-2.70
2022-12-03T09:27:34.485Z,-2.70
2022-12-03T09:30:02.123Z,-2.70
2022-12-03T09:32:32.331Z,-2.70
2022-12-03T09:34:59.360Z,-2.50
2022-12-03T09:37:28.653Z,-2.60
2022-12-03T09:39:55.598Z,-2.60
2022-12-03T09:42:22.640Z,-2.60
2022-12-03T09:44:49.387Z,-2.60
2022-12-03T09:47:19.133Z,-2.50
2022-12-03T09:49:46.196Z,-2.60
2022-12-03T09:52:23.631Z,-2.60
2022-12-03T09:54:52.076Z,-2.50
2022-12-03T09:57:19.372Z,-2.50
2022-12-03T09:59:53.495Z,-2.50
2022-12-03T10:02:29.802Z,-2.40
2022-12-03T10:04:59.112Z,-2.50
2022-12-03T10:07:26.819Z,-2.50
2022-12-03T10:09:53.881Z,-2.50
2022-12-03T10:12:27.123Z,-2.50
2022-12-03T10:14:55.205Z,-2.50
2022-12-03T10:17:22.488Z,-2.50
2022-12-03T10:19:51.755Z,-2.40
2022-12-03T10:22:20.928Z,-2.50
2022-12-03T10:25:14.162Z,-2.40
2022-12-03T10:27:41.810Z,-2.40
2022-12-03T10:30:20.567Z,-2.40
2022-12-03T10:32:50.635Z,-2.30
2022-12-03T10:35:19.221Z,-2.30
2022-12-03T10:38:01.277Z,-2.40
2022-12-03T10:40:31.120Z,-2.40
2022-12-03T10:43:13.439Z,-2.40
2022-12-03T10:45:41.019Z,-2.30
2022-12-03T10:48:27.707Z,-2.30
2022-12-03T10:51:06.985Z,-2.30
2022-12-03T10:53:36.505Z,-2.20
2022-12-03T10:56:06.625Z,-2.20
2022-12-03T10:58:38.337Z,-2.20
2022-12-03T11:01:21.035Z,-2.20
2022-12-03T11:03:49.749Z,-2.10
2022-12-03T11:06:19.181Z,-2.20
2022-12-03T11:08:56.187Z,-2.10
2022-12-03T11:11:29.851Z,-2.10
2022-12-03T11:13:59.068Z,-2.10
2022-12-03T11:16:55.125Z,-2.20
2022-12-03T11:19:43.524Z,-2.20
2022-12-03T11:22:10.425Z,-2.10
2022-12-03T11:24:38.901Z,-2.20
2022-12-03T11:27:07.337Z,-2.10
2022-12-03T11:30:01.053Z,-2.10
2022-12-03T11:32:43.543Z,-2.10
2022-12-03T11:35:22.985Z,-2.10
2022-12-03T11:37:49.856Z,-2.00
2022-12-03T11:40:19.024Z,-2.00
2022-12-03T11:42:47.935Z,-1.90
2022-12-03T11:45:28.267Z,-2.00
2022-12-03T11:48:14.337Z,-2.00
2022-12-03T11:50:52.541Z,-1.90
2022-12-03T11:53:22.810Z,-1.90
2022-12-03T11:56:06.522Z,-1.90
2022-12-03T11:58:38.877Z,-1.90
2022-12-03T12:01:07.830Z,-1.90
2022-12-03T12:03:46.932Z,-1.90
2022-12-03T12:06:16.486Z,-1.90
2022-12-03T12:08:52.325Z,-1.90
2022-12-03T12:11:43.759Z,-2.00
2022-12-03T12:14:12.780Z,-2.00
2022-12-03T12:16:50.973Z,-2.00
2022-12-03T12:19:39.772Z,-2.10
2022-12-03T12:22:27.325Z,-2.10
2022-12-03T12:24:59.680Z,-2.10
2022-12-03T12:27:29.504Z,-2.00
2022-12-03T12:30:02.277Z,-2.10
2022-12-03T12:32:31.511Z,-2.10
2022-12-03T12:35:23.639Z,-2.00
2022-12-03T12:37:59.752Z,-2.00
2022-12-03T12:40:33.498Z,-2.00
2022-12-03T12:43:14.466Z,-2.00
2022-12-03T12:45:45.378Z,-2.00
2022-12-03T12:48:23.919Z,-1.90
2022-12-03T12:51:15.190Z,-1.90
2022-12-03T12:53:44.911Z,-1.90
2022-12-03T12:56:31.384Z,-2.00
2022-12-03T12:59:11.072Z,-1.90
2022-12-03T13:01:38.841Z,-2.00
2022-12-03T13:04:12.549Z,-2.00
2022-12-03T13:06:43.836Z,-1.90
2022-12-03T13:09:30.200Z,-2.00
2022-12-03T13:12:00.795Z,-2.00
2022-12-03T13:14:36.103Z,-2.00
2022-12-03T13:17:24.287Z,-2.00
2022-12-03T13:20:00.500Z,-1.90
2022-12-03T13:22:32.673Z,-2.00
2022-12-03T13:25:38.277Z,-2.00
2022-12-03T13:28:10.251Z,-2.00
2022-12-03T13:30:38.679Z,-2.00
2022-12-03T13:33:28.327Z,-2.10
2022-12-03T13:36:02.502Z,-2.00
2022-12-03T13:38:30.788Z,-2.00
2022-12-03T13:41:02.774Z,-2.00
2022-12-03T13:43:33.279Z,-2.00
2022-12-03T13:46:01.202Z,-2.00
2022-12-03T13:48:35.090Z,-2.00
2022-12-03T13:51:19.661Z,-2.00
2022-12-03T13:53:46.736Z,-2.10
2022-12-03T13:56:30.089Z,-2.00
2022-12-03T13:58:59.581Z,-2.00
2022-12-03T14:01:30.103Z,-2.10
2022-12-03T14:03:57.876Z,-2.00
2022-12-03T14:06:24.652Z,-2.10
2022-12-03T14:08:51.516Z,-2.10
2022-12-03T14:11:36.979Z,-2.10
2022-12-03T14:14:06.011Z,-2.10
2022-12-03T14:16:33.090Z,-2.10
2022-12-03T14:19:01.187Z,-2.20
2022-12-03T14:21:28.139Z,-2.10
2022-12-03T14:23:55.028Z,-2.20
2022-12-03T14:26:21.834Z,-2.20
2022-12-03T14:28:48.551Z,-2.20
2022-12-03T14:31:15.455Z,-2.20
2022-12-03T14:33:42.507Z,-2.20
2022-12-03T14:36:09.554Z,-2.20
2022-12-03T14:38:36.515Z,-2.20
2022-12-03T14:41:03.505Z,-2.10
2022-12-03T14:43:30.822Z,-2.30
2022-12-03T14:45:57.657Z,-2.20
2022-12-03T14:48:24.402Z,-2.20
2022-12-03T14:50:51.282Z,-2.20
2022-12-03T14:53:24.110Z,-2.20
2022-12-03T14:55:55.824Z,-2.30
2022-12-03T14:58:22.572Z,-2.20
2022-12-03T15:00:49.519Z,-2.20
2022-12-03T15:03:16.585Z,-2.20
2022-12-03T15:05:43.505Z,-2.20
2022-12-03T15:08:10.282Z,-2.20
2022-12-03T15:10:37.228Z,-2.30
2022-12-03T15:13:03.922Z,-2.30
2022-12-03T15:15:30.863Z,-2.30
2022-12-03T15:17:57.534Z,-2.30
2022-12-03T15:20:24.300Z,-2.30
2022-12-03T15:22:51.039Z,-2.40
2022-12-03T15:25:24.702Z,-2.40
2022-12-03T15:27:51.804Z,-2.40
2022-12-03T15:30:20.550Z,-2.40
2022-12-03T15:32:47.536Z,-2.40
2022-12-03T15:35:17.617Z,-2.40
2022-12-03T15:37:45.240Z,-2.40
2022-12-03T15:40:13.005Z,-2.40
2022-12-03T15:42:42.221Z,-2.50
2022-12-03T15:45:14.993Z,-2.40
2022-12-03T15:47:42.217Z,-2.40
2022-12-03T15:50:09.636Z,-2.50
2022-12-03T15:52:36.501Z,-2.50
2022-12-03T15:55:03.563Z,-2.40
2022-12-03T15:57:31.063Z,-2.50
2022-12-03T15:59:58.230Z,-2.50
2022-12-03T16:02:25.156Z,-2.40
2022-12-03T16:04:53.005Z,-2.40
2022-12-03T16:07:19.851Z,-2.40
2022-12-03T16:09:46.620Z,-2.50
2022-12-03T16:12:15.705Z,-2.50
2022-12-03T16:14:42.471Z,-2.50
2022-12-03T16:17:13.804Z,-2.50
2022-12-03T16:19:40.904Z,-2.50
2022-12-03T16:22:07.936Z,-2.50
2022-12-03T16:24:34.669Z,-2.50
2022-12-03T16:27:02.655Z,-2.50
2022-12-03T16:29:29.658Z,-2.50
2022-12-03T16:31:57.005Z,-2.50
2022-12-03T16:34:23.756Z,-2.50
2022-12-03T16:36:50.540Z,-2.50
2022-12-03T16:39:17.626Z,-2.50
2022-12-03T16:41:44.631Z,-2.50
2022-12-03T16:44:30.869Z,-2.50
2022-12-03T16:46:58.140Z,-2.50
2022-12-03T16:49:24.886Z,-2.50
2022-12-03T16:51:54.158Z,-2.50
2022-12-03T16:54:21.604Z,-2.50
2022-12-03T16:56:48.301Z,-2.50
2022-12-03T16:59:19.403Z,-2.50
2022-12-03T17:01:46.625Z,-2.60
2022-12-03T17:04:13.481Z,-2.60
2022-12-03T17:06:40.250Z,-2.60
2022-12-03T17:09:07.123Z,-2.50
2022-12-03T17:11:33.945Z,-2.50
2022-12-03T17:14:01.054Z,-2.50
2022-12-03T17:16:28.271Z,-2.60
2022-12-03T17:18:55.429Z,-2.50
2022-12-03T17:21:22.421Z,-2.50
2022-12-03T17:23:50.929Z,-2.50
2022-12-03T17:26:18.979Z,-2.60
2022-12-03T17:28:46.177Z,-2.60
2022-12-03T17:31:13.671Z,-2.60
2022-12-03T17:33:43.220Z,-2.50
2022-12-03T17:36:10.591Z,-2.60
2022-12-03T17:38:39.435Z,-2.50
2022-12-03T17:41:11.607Z,-2.60
2022-12-03T17:43:38.320Z,-2.60
2022-12-03T17:46:06.819Z,-2.60
2022-12-03T17:48:35.490Z,-2.50
2022-12-03T17:51:04.977Z,-2.60
2022-12-03T17:53:34.070Z,-2.60
2022-12-03T17:56:01.294Z,-2.60
2022-12-03T17:58:28.491Z,-2.60
2022-12-03T18:01:01.787Z,-2.60
2022-12-03T18:03:31.894Z,-2.60
2022-12-03T18:05:58.674Z,-2.60
2022-12-03T18:08:25.428Z,-2.60
2022-12-03T18:10:52.379Z,-2.60
2022-12-03T18:13:19.284Z,-2.60
2022-12-03T18:15:48.497Z,-2.60
2022-12-03T18:18:15.614Z,-2.60
2022-12-03T18:20:42.351Z,-2.60
2022-12-03T18:23:09.210Z,-2.60
2022-12-03T18:25:36.060Z,-2.60
2022-12-03T18:28:02.921Z,-2.60
2022-12-03T18:30:29.657Z,-2.60
2022-12-03T18:32:56.498Z,-2.60
2022-12-03T18:35:25.759Z,-2.60
2022-12-03T18:37:52.682Z,-2.60
2022-12-03T18:40:23.603Z,-2.60
2022-12-03T18:42:55.006Z,-2.60
2022-12-03T18:45:21.885Z,-2.60
2022-12-03T18:47:49.699Z,-2.60
2022-12-03T18:50:18.746Z,-2.60
2022-12-03T18:52:45.495Z,-2.60
2022-12-03T18:55:19.050Z,-2.60
2022-12-03T18:57:46.279Z,-2.60
2022-12-03T19:00:14.159Z,-2.70
2022-12-03T19:05:28.540Z,-2.60
2022-12-03T19:07:56.568Z,-2.60
2022-12-03T19:10:24.246Z,-2.60
2022-12-03T19:12:53.285Z,-2.60
2022-12-03T19:15:20.259Z,-2.60
2022-12-03T19:17:50.696Z,-2.60
2022-12-03T19:20:17.573Z,-2.60
2022-12-03T19:22:44.369Z,-2.60
2022-12-03T19:25:11.137Z,-2.60
2022-12-03T19:27:38.182Z,-2.60
2022-12-03T19:30:05.784Z,-2.50
2022-12-03T19:32:34.575Z,-2.60
2022-12-03T19:35:05.230Z,-2.60
2022-12-03T19:37:33.854Z,-2.60
2022-12-03T19:40:01.401Z,-2.60
2022-12-03T19:42:28.270Z,-2.60
2022-12-03T19:44:58.486Z,-2.50
2022-12-03T19:47:25.495Z,-2.50
2022-12-03T19:49:56.075Z,-2.50
2022-12-03T19:52:23.145Z,-2.50
2022-12-03T19:54:49.998Z,-2.50
2022-12-03T19:57:23.104Z,-2.50
2022-12-03T19:59:50.417Z,-2.50
2022-12-03T20:02:17.419Z,-2.40
2022-12-03T20:04:44.232Z,-2.50
2022-12-03T20:07:11.053Z,-2.50
2022-12-03T20:09:38.491Z,-2.50
2022-12-03T20:12:05.330Z,-2.40
2022-12-03T20:14:34.554Z,-2.40
2022-12-03T20:17:04.511Z,-2.50
2022-12-03T20:19:32.349Z,-2.50
2022-12-03T20:22:03.033Z,-2.40
2022-12-03T20:24:30.196Z,-2.50
2022-12-03T20:26:57.991Z,-2.50
2022-12-03T20:29:25.370Z,-2.40
2022-12-03T20:31:54.643Z,-2.40
2022-12-03T20:34:21.597Z,-2.40
2022-12-03T20:36:49.588Z,-2.40
2022-12-03T20:39:16.533Z,-2.40
2022-12-03T20:41:43.489Z,-2.50
2022-12-03T20:44:14.870Z,-2.40
2022-12-03T20:46:42.056Z,-2.40
2022-12-03T20:49:09.071Z,-2.40
2022-12-03T20:51:38.664Z,-2.40
2022-12-03T20:54:05.837Z,-2.40
2022-12-03T20:56:35.764Z,-2.40
2022-12-03T20:59:08.152Z,-2.40
2022-12-03T21:01:38.469Z,-2.40
2022-12-03T21:04:06.420Z,-2.40
2022-12-03T21:06:36.238Z,-2.30
2022-12-03T21:09:06.143Z,-2.40
2022-12-03T21:11:35.487Z,-2.40
2022-12-03T21:14:04.111Z,-2.40
2022-12-03T21:16:59.674Z,-2.40
2022-12-03T21:19:22.597Z,-2.40
2022-12-03T21:21:49.763Z,-2.40
2022-12-03T21:24:18.798Z,-2.40
2022-12-03T21:26:46.001Z,-2.40
2022-12-03T21:29:13.067Z,-2.40
2022-12-03T21:31:40.072Z,-2.40
2022-12-03T21:34:09.127Z,-2.40
2022-12-03T21:36:36.078Z,-2.40
2022-12-03T21:39:06.244Z,-2.30
2022-12-03T21:41:35.483Z,-2.40
2022-12-03T21:44:04.672Z,-2.30
2022-12-03T21:47:09.509Z,-2.40
2022-12-03T21:49:22.615Z,-2.40
2022-12-03T21:51:50.005Z,-2.30
2022-12-03T21:54:17.116Z,-2.40
2022-12-03T21:56:44.185Z,-2.30
2022-12-03T21:59:10.943Z,-2.40
2022-12-03T22:01:45.579Z,-2.40
2022-12-03T22:04:13.991Z,-2.40
2022-12-03T22:06:40.748Z,-2.40
2022-12-03T22:09:07.962Z,-2.50
2022-12-03T22:11:34.875Z,-2.50
2022-12-03T22:14:04.698Z,-2.50
2022-12-03T22:16:32.618Z,-2.70
2022-12-03T22:19:00.025Z,-2.50
2022-12-03T22:21:27.389Z,-2.50
2022-12-03T22:23:56.080Z,-2.50
2022-12-03T22:26:22.838Z,-2.50
2022-12-03T22:28:50.588Z,-2.50
2022-12-03T22:31:17.892Z,-2.60
2022-12-03T22:33:48.413Z,-2.50
2022-12-03T22:36:20.947Z,-2.60
2022-12-03T22:38:53.197Z,-2.60
2022-12-03T22:41:21.272Z,-2.60
2022-12-03T22:43:48.670Z,-2.60
2022-12-03T22:46:18.838Z,-2.60
2022-12-03T22:48:47.408Z,-2.60
2022-12-03T22:51:17.321Z,-2.60
2022-12-03T22:53:44.287Z,-2.60
2022-12-03T22:56:11.851Z,-2.60
2022-12-03T22:58:39.857Z,-2.60
2022-12-03T23:01:10.802Z,-2.60
2022-12-03T23:03:37.605Z,-2.60
2022-12-03T23:06:11.571Z,-2.60
2022-12-03T23:08:38.654Z,-2.70
2022-12-03T23:11:05.754Z,-2.60
2022-12-03T23:13:32.636Z,-2.80
2022-12-03T23:15:59.578Z,-2.60
2022-12-03T23:18:26.452Z,-2.60
2022-12-03T23:20:55.198Z,-2.70
2022-12-03T23:23:26.405Z,-2.60
2022-12-03T23:26:10.271Z,-2.60
2022-12-03T23:28:41.931Z,-2.60
2022-12-03T23:31:21.760Z,-2.70
2022-12-03T23:33:49.416Z,-2.60
2022-12-03T23:36:17.275Z,-2.60
2022-12-03T23:38:44.533Z,-2.60
2022-12-03T23:41:16.310Z,-2.60
2022-12-03T23:43:43.567Z,-2.70
2022-12-03T23:46:13.988Z,-2.60
2022-12-03T23:48:44.252Z,-2.70
2022-12-03T23:51:15.031Z,-2.70
2022-12-03T23:53:43.022Z,-2.70
2022-12-03T23:56:12.570Z,-2.70
2022-12-03T23:58:39.917Z,-2.70
